Aérodrome :
LOGIN :

S'inscrire | Disclaimer

   EN    FR    IT 

 










Légende :    VFR   VFR Marginal   IFR   IFR Intensif   IFR Très Intensif
Visi : 
Plafond : 
>= 8 km
>= 3000ft
5 à 8 km
1000 à 3000 ft
1500m à 5 km
500 à 1000 ft
800 à 1500m
200 à 500 ft
< 800m
< 200 ft
Symboles :   Orages  Brouillard  Fortes neiges  Fortes précipitations  Vent > 20 kt
SIGMETs :   Divers  Orages  Givrage  Turbulence  Onde Orograph.  Cendres Volcan.






- Altitude de l'aérodrome : 915 ft
- Code IATA : LUG


LSZA - Lugano

DERNIER METAR :
  • 022150Z AUTO 36005KT CAVOK 16/15 Q1013

METARs EXPIRÉS :
  • 022120Z AUTO 01003KT 9999 NCD 15/15 Q1013
  • 022050Z AUTO VRB02KT 9999 FEW085 SCT100 //////TCU 16/15 Q1013 RETSRA
  • 022020Z AUTO VRB02KT 9999 -RA VCTS FEW075 SCT085 BKN110 SCT///CB 17/14 Q1013 RETSRA
  • 021950Z AUTO VRB02KT 9999 -TSRA FEW070 SCT080 BKN110 SCT///CB 19/11 Q1013 RERA
  • 021920Z AUTO 24005KT 200V320 9999 -TSRA SCT060CB BKN070 20/10 Q1012 RERA

TAF TAF LSZA
Valide du 02 à 15h jusqu'au 03 à 00h UTC


021425Z 0215/0224 19007KT 9999 FEW050TCU
PROB30
TEMPO 0216/0219 TSRA SCT050CB
PROB40
TEMPO 0217/0220 17018G30KT
ATIS : +41 22 417 40 88



MET'MAP, la Météo Aéronautique d'un coup d'oeil ! - Copyright ORBIFLY Décembre 2007 - Disclaimer

ORBIFLY MET'MAP TEAM :

Programmation & Développement : Alexandra Zaïnal
Sur une idée originale de : Baudouin d'Aumeries
Assistance à la programmation : Marc-Olivier Méhu
Soutien technique & logistique : Manuel Goepfert

Contact : metmap@orbifly.com




SOURCES & CREDITS :

   NOAA